Time;durP1;ratioP1;P1;durP2;ratioP2;P2;SDS_P1;SDS_P2;PMS_P1;PMS_P2;Temp;Humidity;BMP_temperature;BMP_pressure;BME280_temperature;BME280_humidity;BME280_pressure;Samples;Min_cycle;Max_cycle;Signal;HPM_P1;HPM_P2
2021/08/17 00:02:19;;;;;;;2.97;0.70;;;24.00;46.80;;;;;;6323184;28;20062;-73
2021/08/17 00:05:21;;;;;;;2.08;0.80;;;23.90;47.80;;;;;;6323123;28;20032;-73
2021/08/17 00:08:22;;;;;;;2.30;0.70;;;23.80;48.10;;;;;;6324243;28;20040;-73
2021/08/17 00:11:23;;;;;;;3.55;0.95;;;23.70;48.20;;;;;;6323050;28;20378;-73
2021/08/17 00:14:24;;;;;;;1.08;0.65;;;23.60;48.60;;;;;;6299111;28;20068;-73
2021/08/17 00:17:25;;;;;;;3.47;0.77;;;23.60;49.00;;;;;;6281233;28;20036;-73
2021/08/17 00:20:26;;;;;;;0.77;0.70;;;23.50;49.10;;;;;;6297699;28;20517;-73
2021/08/17 00:23:29;;;;;;;1.45;0.68;;;23.50;49.30;;;;;;6322655;28;20070;-73
2021/08/17 00:26:30;;;;;;;0.60;0.60;;;23.50;49.60;;;;;;6317661;28;20419;-73
2021/08/17 00:29:32;;;;;;;1.20;0.77;;;23.40;49.60;;;;;;6320093;28;20044;-72
2021/08/17 00:32:33;;;;;;;1.50;0.68;;;23.40;49.80;;;;;;6311921;28;20039;-73
2021/08/17 00:35:37;;;;;;;1.75;0.85;;;23.40;49.80;;;;;;6301812;28;20368;-73
2021/08/17 00:38:40;;;;;;;0.93;0.70;;;23.30;49.80;;;;;;6314616;28;20032;-72
2021/08/17 00:41:41;;;;;;;1.35;0.60;;;23.40;50.10;;;;;;6325087;28;20093;-73
2021/08/17 00:44:42;;;;;;;1.25;0.63;;;23.40;50.10;;;;;;6325130;28;20487;-74
2021/08/17 00:47:43;;;;;;;1.05;0.63;;;23.40;50.30;;;;;;6324345;28;20036;-73
2021/08/17 00:50:45;;;;;;;2.58;0.80;;;23.30;50.50;;;;;;6327728;28;20036;-73
2021/08/17 00:53:46;;;;;;;0.93;0.68;;;23.30;50.70;;;;;;6327719;28;20046;-75
2021/08/17 00:56:48;;;;;;;2.65;1.67;;;23.30;50.80;;;;;;6328260;28;20043;-73
2021/08/17 00:59:49;;;;;;;0.70;0.63;;;23.30;51.30;;;;;;6310650;28;20465;-73
2021/08/17 01:02:50;;;;;;;1.63;0.80;;;23.20;51.50;;;;;;6326792;28;20064;-74
2021/08/17 01:05:51;;;;;;;0.88;0.70;;;23.20;51.60;;;;;;6327279;28;20036;-73
2021/08/17 01:08:52;;;;;;;1.15;0.70;;;23.20;51.70;;;;;;6327759;28;20094;-73
2021/08/17 01:11:53;;;;;;;0.98;0.55;;;23.20;52.00;;;;;;6327219;28;20036;-73
2021/08/17 01:14:54;;;;;;;1.50;0.80;;;23.10;52.10;;;;;;6327103;28;20129;-74
2021/08/17 01:17:55;;;;;;;1.02;0.60;;;23.10;52.80;;;;;;6328038;28;20043;-74
2021/08/17 01:20:58;;;;;;;2.00;0.70;;;23.10;52.30;;;;;;6301188;28;20414;-73
2021/08/17 01:24:00;;;;;;;0.45;0.45;;;23.10;52.30;;;;;;6284866;28;20040;-74
2021/08/17 01:27:01;;;;;;;2.67;0.70;;;23.10;52.10;;;;;;6284441;28;20110;-74
2021/08/17 01:30:03;;;;;;;1.48;0.63;;;23.10;52.00;;;;;;6302260;28;20037;-74
2021/08/17 01:33:04;;;;;;;0.75;0.65;;;23.10;52.20;;;;;;6318188;28;20055;-74
2021/08/17 01:36:05;;;;;;;2.25;0.85;;;23.00;52.50;;;;;;6326312;28;20122;-73
2021/08/17 01:39:07;;;;;;;1.77;0.77;;;23.00;52.60;;;;;;6326414;28;20032;-74
2021/08/17 01:42:08;;;;;;;3.28;0.70;;;22.90;52.60;;;;;;6327283;28;20472;-74
2021/08/17 01:45:10;;;;;;;0.88;0.57;;;22.90;52.70;;;;;;6309693;28;20406;-73
2021/08/17 01:48:12;;;;;;;0.93;0.68;;;22.90;52.90;;;;;;6325997;28;20097;-73
2021/08/17 01:51:13;;;;;;;2.13;0.85;;;22.90;53.00;;;;;;6326261;28;20040;-73
2021/08/17 01:54:16;;;;;;;1.10;1.00;;;22.90;53.10;;;;;;6326152;28;20040;-73
2021/08/17 01:57:17;;;;;;;1.08;0.60;;;22.90;53.00;;;;;;6327055;28;20040;-73
2021/08/17 02:00:18;;;;;;;0.75;0.60;;;22.90;53.10;;;;;;6325231;28;20047;-73
2021/08/17 02:03:19;;;;;;;0.90;0.70;;;22.90;53.10;;;;;;6326639;28;20460;-73
2021/08/17 02:06:21;;;;;;;1.98;0.80;;;22.90;53.20;;;;;;6326677;28;20040;-74
2021/08/17 02:09:23;;;;;;;0.90;0.60;;;22.90;53.20;;;;;;6326768;28;20031;-73
2021/08/17 02:12:24;;;;;;;0.85;0.60;;;22.90;53.10;;;;;;6325511;28;20541;-73
2021/08/17 02:15:25;;;;;;;1.42;0.90;;;22.90;53.10;;;;;;6324967;28;20043;-73
2021/08/17 02:18:31;;;;;;;2.10;0.70;;;22.90;53.10;;;;;;6301508;28;20035;-74
2021/08/17 02:21:32;;;;;;;3.08;0.60;;;22.90;53.00;;;;;;6308581;28;20030;-73
2021/08/17 02:24:33;;;;;;;3.28;0.60;;;22.90;53.00;;;;;;6342183;28;20032;-73
2021/08/17 02:27:35;;;;;;;0.88;0.70;;;22.90;53.10;;;;;;6307927;28;20039;-73
2021/08/17 02:30:36;;;;;;;1.63;0.65;;;22.90;53.20;;;;;;6324960;28;20358;-73
2021/08/17 02:33:38;;;;;;;1.48;0.70;;;22.80;53.20;;;;;;6325330;28;20032;-73
2021/08/17 02:36:39;;;;;;;0.65;0.60;;;22.90;53.10;;;;;;6325674;28;20089;-73
2021/08/17 02:39:40;;;;;;;1.60;0.70;;;22.90;53.00;;;;;;6341498;28;20038;-73
2021/08/17 02:42:41;;;;;;;0.73;0.73;;;22.90;52.80;;;;;;6326065;28;20051;-73
2021/08/17 02:45:42;;;;;;;0.88;0.60;;;22.90;52.50;;;;;;6324695;28;20453;-73
2021/08/17 02:48:43;;;;;;;0.57;0.52;;;23.00;52.40;;;;;;6325662;28;20459;-73
2021/08/17 02:51:44;;;;;;;1.05;0.70;;;23.00;52.40;;;;;;6325642;28;20036;-73
2021/08/17 02:54:48;;;;;;;1.10;0.40;;;23.00;52.50;;;;;;6325069;28;20036;-73
2021/08/17 02:57:54;;;;;;;0.52;0.50;;;23.00;52.50;;;;;;6325495;28;20063;-73
2021/08/17 03:00:55;;;;;;;1.15;0.55;;;22.90;52.50;;;;;;6324365;28;20050;-73
2021/08/17 03:03:56;;;;;;;0.85;0.57;;;22.90;52.50;;;;;;6307516;28;20512;-73
2021/08/17 03:06:58;;;;;;;0.70;0.60;;;22.90;52.40;;;;;;6298642;28;20047;-73
2021/08/17 03:09:59;;;;;;;3.78;0.70;;;22.90;52.40;;;;;;6298949;28;20064;-73
2021/08/17 03:13:02;;;;;;;2.17;0.60;;;22.90;52.30;;;;;;6299653;28;20036;-74
2021/08/17 03:16:03;;;;;;;2.10;0.75;;;22.90;52.30;;;;;;6307349;28;20097;-73
2021/08/17 03:19:04;;;;;;;0.75;0.40;;;22.90;52.20;;;;;;6324794;28;20040;-73
2021/08/17 03:22:06;;;;;;;2.63;0.75;;;23.00;52.10;;;;;;6324998;28;20368;-73
2021/08/17 03:25:09;;;;;;;1.20;0.68;;;22.90;52.00;;;;;;6323748;28;20040;-73
2021/08/17 03:28:10;;;;;;;0.93;0.60;;;23.00;52.10;;;;;;6323527;28;20059;-73
2021/08/17 03:31:12;;;;;;;0.75;0.60;;;23.00;52.00;;;;;;6324797;28;20089;-73
2021/08/17 03:34:13;;;;;;;1.10;0.68;;;23.00;51.90;;;;;;6299394;28;20051;-73
2021/08/17 03:37:14;;;;;;;1.17;0.60;;;23.10;51.80;;;;;;6298651;28;20123;-73
2021/08/17 03:40:18;;;;;;;0.70;0.50;;;23.00;51.70;;;;;;6299452;28;20040;-73
2021/08/17 03:43:19;;;;;;;0.40;0.40;;;23.00;51.60;;;;;;6298415;28;20059;-73
2021/08/17 03:46:20;;;;;;;1.27;0.70;;;23.00;51.60;;;;;;6298451;28;20111;-74
2021/08/17 03:49:21;;;;;;;0.82;0.65;;;23.10;51.50;;;;;;6299533;28;20024;-73
2021/08/17 03:52:22;;;;;;;1.63;0.68;;;23.10;51.40;;;;;;6290853;28;20035;-73
2021/08/17 03:55:23;;;;;;;0.52;0.50;;;23.00;51.40;;;;;;6298948;28;20369;-73
2021/08/17 03:58:24;;;;;;;1.75;0.70;;;23.00;51.30;;;;;;6299451;28;20032;-73
2021/08/17 04:01:25;;;;;;;0.75;0.63;;;23.00;51.40;;;;;;6281179;28;20086;-73
2021/08/17 04:04:26;;;;;;;0.73;0.60;;;23.10;51.40;;;;;;6320256;28;20089;-73
2021/08/17 04:07:27;;;;;;;4.38;0.70;;;23.00;51.30;;;;;;6323892;28;20032;-73
2021/08/17 04:10:28;;;;;;;1.05;0.60;;;23.00;51.30;;;;;;6323825;28;20036;-73
2021/08/17 04:13:29;;;;;;;0.50;0.50;;;23.00;51.10;;;;;;6297364;28;20043;-73
2021/08/17 04:16:30;;;;;;;0.50;0.47;;;23.00;51.00;;;;;;6307008;28;20028;-73
2021/08/17 04:19:31;;;;;;;1.95;0.85;;;23.00;50.80;;;;;;6323675;28;20028;-73
2021/08/17 04:22:33;;;;;;;1.25;0.68;;;23.10;50.60;;;;;;6323811;28;20381;-73
2021/08/17 04:25:36;;;;;;;0.68;0.63;;;23.00;50.30;;;;;;6322331;28;20032;-73
2021/08/17 04:28:37;;;;;;;1.10;0.65;;;23.10;50.20;;;;;;6314524;28;20054;-73
2021/08/17 04:31:38;;;;;;;1.15;0.70;;;23.10;50.10;;;;;;6306791;28;20040;-73
2021/08/17 04:34:39;;;;;;;1.58;0.70;;;23.10;50.10;;;;;;6323675;28;20373;-73
2021/08/17 04:37:40;;;;;;;1.55;0.73;;;23.00;50.10;;;;;;6323779;28;20358;-73
2021/08/17 04:40:41;;;;;;;0.98;0.70;;;23.00;50.10;;;;;;6323424;28;20040;-73
2021/08/17 04:43:42;;;;;;;4.60;0.82;;;22.90;50.20;;;;;;6305899;28;20414;-73
2021/08/17 04:46:43;;;;;;;1.92;1.10;;;22.90;50.20;;;;;;6323661;28;20050;-74
2021/08/17 04:49:44;;;;;;;3.80;0.70;;;22.90;50.20;;;;;;6323794;28;20101;-74
2021/08/17 04:52:46;;;;;;;1.23;0.60;;;22.90;50.10;;;;;;6333456;28;20036;-74
2021/08/17 04:55:47;;;;;;;1.35;0.80;;;22.90;50.30;;;;;;6342200;28;20078;-75
2021/08/17 04:58:48;;;;;;;1.05;0.70;;;22.80;50.10;;;;;;6359675;28;20033;-74
2021/08/17 05:01:49;;;;;;;2.00;0.80;;;22.80;50.10;;;;;;6326727;28;20029;-74
2021/08/17 05:04:50;;;;;;;0.85;0.60;;;22.70;50.00;;;;;;6330820;28;20027;-74
2021/08/17 05:07:51;;;;;;;1.50;1.13;;;22.70;50.10;;;;;;6348936;28;20047;-74
2021/08/17 05:10:52;;;;;;;0.90;0.65;;;22.60;50.20;;;;;;6333964;28;20050;-74
2021/08/17 05:13:53;;;;;;;1.65;0.70;;;22.60;50.30;;;;;;6321997;28;20464;-74
2021/08/17 05:16:54;;;;;;;3.55;0.45;;;22.60;50.40;;;;;;6322099;28;20051;-74
2021/08/17 05:19:55;;;;;;;3.80;1.05;;;22.60;50.40;;;;;;6323164;28;20050;-74
2021/08/17 05:22:57;;;;;;;0.90;0.73;;;22.70;50.50;;;;;;6305366;28;20043;-73
2021/08/17 05:25:58;;;;;;;0.88;0.40;;;22.60;50.50;;;;;;6321781;28;20052;-74
2021/08/17 05:28:59;;;;;;;1.33;0.80;;;22.70;50.50;;;;;;6323584;28;20533;-74
2021/08/17 05:32:00;;;;;;;2.50;0.60;;;22.70;50.60;;;;;;6305466;28;20122;-73
2021/08/17 05:35:01;;;;;;;2.95;1.30;;;22.60;50.70;;;;;;6349836;27;20047;-73
2021/08/17 05:38:03;;;;;;;1.15;0.57;;;22.60;50.80;;;;;;6351930;28;20031;-73
2021/08/17 05:41:04;;;;;;;1.00;0.75;;;22.60;50.90;;;;;;6327675;28;20040;-74
2021/08/17 05:44:05;;;;;;;1.02;0.70;;;22.60;50.90;;;;;;6326260;28;20392;-73
2021/08/17 05:47:07;;;;;;;0.70;0.60;;;22.60;51.00;;;;;;6327220;28;20054;-73
2021/08/17 05:50:08;;;;;;;1.08;0.65;;;22.60;51.00;;;;;;6309200;28;20146;-73
2021/08/17 05:53:09;;;;;;;1.45;0.70;;;22.60;51.10;;;;;;6327134;28;20050;-73
2021/08/17 05:56:10;;;;;;;1.92;0.95;;;22.60;51.30;;;;;;6326733;28;20040;-73
2021/08/17 05:59:11;;;;;;;1.30;0.90;;;22.50;51.70;;;;;;6325681;28;20036;-73
2021/08/17 06:02:13;;;;;;;2.13;0.80;;;22.50;51.90;;;;;;6330025;28;20044;-73
2021/08/17 06:05:14;;;;;;;1.65;0.68;;;22.50;52.10;;;;;;6325936;28;20055;-73
2021/08/17 06:08:15;;;;;;;1.08;0.98;;;22.50;52.50;;;;;;6308852;28;20043;-73
2021/08/17 06:11:16;;;;;;;0.93;0.80;;;22.50;52.20;;;;;;6325910;28;20059;-73
2021/08/17 06:14:17;;;;;;;3.80;1.63;;;22.50;52.20;;;;;;6326841;28;20040;-73
2021/08/17 06:17:18;;;;;;;1.25;1.00;;;22.50;52.00;;;;;;6300151;28;20036;-74
2021/08/17 06:20:19;;;;;;;2.50;0.85;;;22.50;51.90;;;;;;6309778;28;20040;-74
2021/08/17 06:23:20;;;;;;;1.10;0.93;;;22.50;51.80;;;;;;6326536;28;20028;-73
2021/08/17 06:26:21;;;;;;;0.77;0.73;;;22.50;51.70;;;;;;6325954;28;20040;-74
2021/08/17 06:29:22;;;;;;;2.35;1.08;;;22.60;51.60;;;;;;6325141;28;20397;-73
2021/08/17 06:32:23;;;;;;;2.83;1.00;;;22.60;51.50;;;;;;6326321;28;20066;-74
2021/08/17 06:35:25;;;;;;;2.20;0.90;;;22.60;51.40;;;;;;6342113;28;20059;-74
2021/08/17 06:38:26;;;;;;;10.82;1.33;;;22.60;51.30;;;;;;6323562;28;20027;-74
2021/08/17 06:41:27;;;;;;;1.60;1.08;;;22.60;51.10;;;;;;6324914;28;20520;-74
2021/08/17 06:44:28;;;;;;;1.50;0.80;;;22.70;51.70;;;;;;6324466;28;20103;-74
2021/08/17 06:47:30;;;;;;;4.32;1.27;;;22.70;50.80;;;;;;6300782;28;20036;-74
2021/08/17 06:50:31;;;;;;;1.10;0.88;;;22.80;50.60;;;;;;6299245;28;20034;-74
2021/08/17 06:53:32;;;;;;;1.75;1.27;;;22.80;50.50;;;;;;6300338;28;20425;-74
2021/08/17 06:56:33;;;;;;;2.83;1.30;;;22.90;50.20;;;;;;6282864;28;20082;-73
2021/08/17 06:59:34;;;;;;;1.75;1.00;;;23.00;50.00;;;;;;6299558;28;20028;-74
2021/08/17 07:02:35;;;;;;;2.25;1.05;;;23.10;49.40;;;;;;6308679;28;20123;-74
2021/08/17 07:05:40;;;;;;;1.85;1.10;;;23.10;49.40;;;;;;6323662;28;20046;-75
2021/08/17 07:08:41;;;;;;;3.05;1.40;;;23.10;49.30;;;;;;6341051;28;20044;-74
2021/08/17 07:11:43;;;;;;;3.35;1.35;;;23.20;49.30;;;;;;6324734;28;20040;-75
2021/08/17 07:14:44;;;;;;;3.42;1.50;;;23.20;49.20;;;;;;6324301;28;20044;-74
2021/08/17 07:17:46;;;;;;;6.03;1.85;;;23.30;49.30;;;;;;6325050;28;20036;-74
2021/08/17 07:20:47;;;;;;;2.03;1.15;;;23.30;49.50;;;;;;6323692;28;20047;-74
2021/08/17 07:23:48;;;;;;;11.45;1.58;;;23.30;49.60;;;;;;6323874;28;20036;-74
2021/08/17 07:26:49;;;;;;;3.92;1.90;;;23.30;49.50;;;;;;6323713;28;20121;-74
2021/08/17 07:29:50;;;;;;;4.38;1.50;;;23.30;49.70;;;;;;6323892;28;20131;-74
2021/08/17 07:32:51;;;;;;;3.90;1.70;;;23.30;49.70;;;;;;6331093;28;20039;-74
2021/08/17 07:35:52;;;;;;;3.63;1.65;;;23.40;49.50;;;;;;6331944;28;20046;-74
2021/08/17 07:38:53;;;;;;;3.00;1.67;;;23.50;49.00;;;;;;6349049;28;20031;-74
2021/08/17 07:41:54;;;;;;;3.72;2.58;;;23.60;48.60;;;;;;6350451;27;20043;-75
2021/08/17 07:44:56;;;;;;;5.22;1.80;;;23.60;48.20;;;;;;6349016;28;20088;-73
2021/08/17 07:47:57;;;;;;;6.15;1.90;;;23.60;48.00;;;;;;6348791;28;20451;-75
2021/08/17 07:50:58;;;;;;;4.15;2.00;;;23.50;47.90;;;;;;6324439;28;20035;-75
2021/08/17 07:53:59;;;;;;;4.57;1.85;;;23.50;48.00;;;;;;6324648;28;20032;-73
2021/08/17 07:57:00;;;;;;;4.72;1.98;;;23.40;48.20;;;;;;6324684;28;20054;-75
2021/08/17 08:00:03;;;;;;;4.20;1.83;;;23.40;48.20;;;;;;6324575;28;20040;-73
2021/08/17 08:03:05;;;;;;;4.68;2.65;;;23.40;48.20;;;;;;6320554;28;20040;-75
2021/08/17 08:06:07;;;;;;;4.78;2.42;;;23.30;48.10;;;;;;6323371;28;20049;-74
2021/08/17 08:09:08;;;;;;;4.32;2.10;;;23.40;47.90;;;;;;6329828;28;20095;-74
2021/08/17 08:12:13;;;;;;;3.83;2.15;;;23.50;47.60;;;;;;6315870;28;20040;-73
2021/08/17 08:15:14;;;;;;;4.72;2.13;;;23.50;47.10;;;;;;6307141;28;20050;-74
2021/08/17 08:18:15;;;;;;;5.13;2.50;;;23.60;47.00;;;;;;6322841;28;20040;-74
2021/08/17 08:21:16;;;;;;;4.53;2.30;;;23.60;46.70;;;;;;6314082;28;20085;-74
2021/08/17 08:24:17;;;;;;;6.03;2.40;;;23.60;46.20;;;;;;6323720;28;20123;-74
2021/08/17 08:27:18;;;;;;;6.90;2.92;;;23.60;45.80;;;;;;6321854;28;20130;-74
2021/08/17 08:30:19;;;;;;;8.68;2.60;;;23.70;45.60;;;;;;6314989;28;20032;-73
2021/08/17 08:33:28;;;;;;;7.25;2.72;;;23.70;45.40;;;;;;6323175;28;20081;-74
2021/08/17 08:36:40;;;;;;;7.55;2.90;;;23.70;45.40;;;;;;6322635;28;20039;-74
2021/08/17 08:39:57;;;;;;;7.70;3.08;;;23.80;45.00;;;;;;6321453;28;20040;-74
2021/08/17 08:43:13;;;;;;;7.97;3.17;;;23.80;44.60;;;;;;6322922;28;20035;-74
2021/08/17 08:46:20;;;;;;;8.05;2.90;;;23.80;44.00;;;;;;6305154;28;20115;-74
2021/08/17 08:49:22;;;;;;;9.90;2.83;;;23.80;43.20;;;;;;6321727;28;20039;-74
2021/08/17 08:52:23;;;;;;;6.20;3.08;;;23.80;43.20;;;;;;6322057;28;20457;-74
2021/08/17 08:55:24;;;;;;;7.93;3.72;;;23.90;43.30;;;;;;6322061;28;20028;-74
2021/08/17 08:58:25;;;;;;;9.50;3.30;;;24.00;43.20;;;;;;6323051;28;20093;-75
2021/08/17 09:01:27;;;;;;;14.98;3.08;;;24.20;42.60;;;;;;6321326;28;20028;-73
2021/08/17 09:04:28;;;;;;;7.47;3.30;;;24.30;42.20;;;;;;6316627;28;20040;-73
2021/08/17 09:07:34;;;;;;;8.90;3.38;;;24.40;41.60;;;;;;6312888;28;20033;-73
2021/08/17 09:10:35;;;;;;;8.48;3.60;;;24.60;41.20;;;;;;6308823;28;20043;-73
2021/08/17 09:13:36;;;;;;;8.85;3.47;;;24.80;40.50;;;;;;6276818;28;20060;-75
2021/08/17 09:16:37;;;;;;;8.05;3.80;;;25.10;39.50;;;;;;6335566;28;20081;-74
2021/08/17 09:19:40;;;;;;;8.02;3.53;;;25.30;38.70;;;;;;6316400;28;20032;-73
2021/08/17 09:22:42;;;;;;;7.20;3.08;;;25.40;38.40;;;;;;6332429;28;20079;-74
2021/08/17 09:25:43;;;;;;;11.88;4.00;;;25.50;38.00;;;;;;6323900;28;20036;-73
2021/08/17 09:28:52;;;;;;;13.15;3.72;;;25.60;37.70;;;;;;6330122;28;20353;-74
2021/08/17 09:31:55;;;;;;;10.70;3.22;;;25.60;37.80;;;;;;6353726;28;20043;-72
2021/08/17 09:35:03;;;;;;;7.20;3.38;;;25.60;37.50;;;;;;6302635;28;20051;-73
2021/08/17 09:38:09;;;;;;;7.38;3.35;;;25.60;37.40;;;;;;6302114;28;20036;-74
2021/08/17 09:41:21;;;;;;;5.22;2.78;;;25.60;37.50;;;;;;6284258;28;20057;-72
2021/08/17 09:44:23;;;;;;;8.63;3.75;;;25.40;37.10;;;;;;6300665;28;20035;-72
2021/08/17 09:47:27;;;;;;;8.77;3.65;;;25.30;37.30;;;;;;6301586;28;20098;-73
2021/08/17 09:50:31;;;;;;;13.25;3.45;;;25.30;37.30;;;;;;6300168;28;20345;-73
2021/08/17 09:53:32;;;;;;;9.13;3.38;;;25.40;37.30;;;;;;6301226;28;20035;-73
2021/08/17 09:56:33;;;;;;;12.48;3.03;;;25.50;37.40;;;;;;6282983;28;20036;-73
2021/08/17 09:59:35;;;;;;;6.30;3.25;;;25.70;37.30;;;;;;6299712;28;20032;-73
2021/08/17 10:02:37;;;;;;;6.68;3.20;;;25.80;36.40;;;;;;6307640;28;20039;-75
2021/08/17 10:05:38;;;;;;;8.35;4.03;;;25.90;36.40;;;;;;6325234;28;20111;-73
2021/08/17 10:08:40;;;;;;;8.52;3.30;;;26.00;36.40;;;;;;6325789;28;20043;-73
2021/08/17 10:11:42;;;;;;;5.93;2.88;;;26.10;36.30;;;;;;6307970;28;20036;-73
2021/08/17 10:14:44;;;;;;;6.22;3.00;;;26.20;36.20;;;;;;6325882;28;20161;-73
2021/08/17 10:17:45;;;;;;;6.30;3.03;;;26.20;36.30;;;;;;6326135;28;20036;-74
2021/08/17 10:20:49;;;;;;;7.35;3.20;;;26.30;36.40;;;;;;6324614;28;20032;-74
2021/08/17 10:23:50;;;;;;;6.40;2.75;;;26.30;35.90;;;;;;6324945;28;20145;-74
2021/08/17 10:27:11;;;;;;;7.32;3.28;;;26.30;36.00;;;;;;6324216;28;20040;-74
2021/08/17 10:30:22;;;;;;;8.35;3.13;;;26.40;36.10;;;;;;6339597;28;20028;-74
2021/08/17 10:34:07;;;;;;;6.72;2.53;;;26.50;36.00;;;;;;6322689;28;20024;-73
2021/08/17 10:37:28;;;;;;;6.88;3.15;;;26.50;35.90;;;;;;6211576;28;20030;-74
2021/08/17 10:40:48;;;;;;;7.35;3.10;;;26.40;35.90;;;;;;6203721;28;20033;-74
2021/08/17 10:43:49;;;;;;;12.63;3.50;;;26.30;36.20;;;;;;6204931;28;20149;-74
2021/08/17 10:46:51;;;;;;;5.93;3.08;;;26.30;36.20;;;;;;6221128;28;20121;-74
2021/08/17 10:49:52;;;;;;;5.60;3.05;;;26.20;36.50;;;;;;6204536;28;20367;-74
2021/08/17 10:52:53;;;;;;;6.07;2.90;;;26.50;36.80;;;;;;6223419;28;20077;-74
2021/08/17 10:56:12;;;;;;;6.57;2.97;;;26.30;36.60;;;;;;6185633;28;20034;-74
2021/08/17 10:59:13;;;;;;;6.60;2.97;;;26.30;37.00;;;;;;6205269;28;20029;-74
2021/08/17 11:02:23;;;;;;;9.82;3.30;;;26.30;36.90;;;;;;6219254;28;20866;-75
2021/08/17 11:05:53;;;;;;;9.52;2.75;;;26.40;36.80;;;;;;6205092;28;20069;-74
2021/08/17 11:08:58;;;;;;;4.75;2.38;;;26.60;36.20;;;;;;6217251;28;20042;-74
2021/08/17 11:12:03;;;;;;;5.95;2.60;;;26.60;35.80;;;;;;6222536;28;20345;-73
2021/08/17 11:15:07;;;;;;;5.47;2.53;;;26.60;35.80;;;;;;6337214;28;20032;-73
2021/08/17 11:18:08;;;;;;;7.25;2.80;;;26.60;36.00;;;;;;6321568;28;20036;-75
2021/08/17 11:21:09;;;;;;;6.93;2.95;;;26.50;36.20;;;;;;6319788;28;20059;-72
2021/08/17 11:24:16;;;;;;;9.75;3.72;;;26.50;36.40;;;;;;6321479;28;20107;-73
2021/08/17 11:27:20;;;;;;;5.28;2.90;;;26.40;36.60;;;;;;6319066;28;20032;-73
2021/08/17 11:30:23;;;;;;;6.95;3.05;;;26.40;36.70;;;;;;6304688;28;20390;-73
2021/08/17 11:33:24;;;;;;;9.95;3.03;;;26.50;36.60;;;;;;6330611;27;20112;-73
2021/08/17 11:36:25;;;;;;;8.63;3.20;;;26.50;36.70;;;;;;6345152;27;20027;-73
2021/08/17 11:39:33;;;;;;;7.25;3.10;;;26.50;36.70;;;;;;6345615;27;20043;-73
2021/08/17 11:42:37;;;;;;;8.10;3.00;;;26.50;36.70;;;;;;6344944;27;20043;-73
2021/08/17 11:45:39;;;;;;;9.13;3.60;;;26.60;36.80;;;;;;6345876;27;20039;-73
2021/08/17 11:48:40;;;;;;;9.13;3.60;;;26.60;36.60;;;;;;6344616;27;20043;-73
2021/08/17 11:51:42;;;;;;;7.90;3.35;;;26.60;36.60;;;;;;6319401;28;20461;-73
2021/08/17 11:54:46;;;;;;;7.50;3.13;;;26.60;36.60;;;;;;6324487;28;20059;-73
2021/08/17 11:58:04;;;;;;;7.07;3.05;;;26.60;36.60;;;;;;6343851;27;20040;-73
2021/08/17 12:01:08;;;;;;;6.85;2.88;;;26.70;36.50;;;;;;6346158;28;20051;-73
2021/08/17 12:04:09;;;;;;;6.40;3.13;;;26.80;36.20;;;;;;6326846;27;20061;-73
2021/08/17 12:07:11;;;;;;;8.38;3.40;;;27.20;35.70;;;;;;6345524;28;20476;-74
2021/08/17 12:10:16;;;;;;;8.85;3.20;;;27.70;35.50;;;;;;6346385;28;20035;-73
2021/08/17 12:13:19;;;;;;;9.27;3.80;;;28.20;34.00;;;;;;6345663;28;20043;-74
2021/08/17 12:16:20;;;;;;;6.47;3.35;;;28.20;33.70;;;;;;6346716;28;20031;-74
2021/08/17 12:19:21;;;;;;;6.93;3.08;;;28.10;33.80;;;;;;6345480;28;20499;-74
2021/08/17 12:22:25;;;;;;;8.13;3.28;;;28.30;33.70;;;;;;6344995;28;20035;-74
2021/08/17 12:25:28;;;;;;;6.03;3.13;;;28.80;33.20;;;;;;6345205;28;20043;-74
2021/08/17 12:28:33;;;;;;;8.20;3.10;;;29.20;32.40;;;;;;6344501;28;20043;-73
2021/08/17 12:31:37;;;;;;;9.63;3.75;;;29.30;32.10;;;;;;6344729;27;20183;-73
2021/08/17 12:34:43;;;;;;;10.90;3.10;;;29.20;32.30;;;;;;6321922;28;20036;-74
2021/08/17 12:37:44;;;;;;;9.20;3.58;;;29.10;32.40;;;;;;6319984;28;20093;-74
2021/08/17 12:40:50;;;;;;;6.93;2.90;;;29.20;32.00;;;;;;6295351;28;20055;-74
2021/08/17 12:43:51;;;;;;;8.45;3.45;;;29.00;32.20;;;;;;6318791;28;20402;-74
2021/08/17 12:47:01;;;;;;;6.45;3.20;;;29.10;32.10;;;;;;6336887;28;20161;-75
2021/08/17 12:50:07;;;;;;;6.72;3.33;;;29.10;32.20;;;;;;6308050;28;20039;-73
2021/08/17 12:53:24;;;;;;;5.93;3.20;;;29.80;31.40;;;;;;6325789;28;20047;-74
2021/08/17 12:56:25;;;;;;;8.70;2.88;;;30.40;30.30;;;;;;6323755;28;20036;-75
2021/08/17 12:59:26;;;;;;;10.15;3.70;;;30.80;29.90;;;;;;6298215;28;20352;-74
2021/08/17 13:02:27;;;;;;;4.75;2.95;;;31.70;28.70;;;;;;6318926;28;20028;-74
2021/08/17 13:05:28;;;;;;;10.65;3.70;;;32.50;28.40;;;;;;6324142;28;20461;-75
2021/08/17 13:08:30;;;;;;;8.18;3.28;;;32.80;27.80;;;;;;6324308;28;20040;-75
2021/08/17 13:11:31;;;;;;;7.45;3.25;;;32.70;27.10;;;;;;6307505;28;20085;-75
2021/08/17 13:14:33;;;;;;;7.03;3.20;;;32.70;27.10;;;;;;6324454;28;20038;-74
2021/08/17 13:17:34;;;;;;;6.43;2.97;;;32.00;27.70;;;;;;6341240;28;20043;-74
2021/08/17 13:20:35;;;;;;;5.63;3.15;;;31.40;28.40;;;;;;6349336;27;20039;-74
2021/08/17 13:23:36;;;;;;;11.10;3.58;;;31.70;28.20;;;;;;6349368;27;20087;-75
2021/08/17 13:26:37;;;;;;;8.10;3.20;;;32.80;27.20;;;;;;6350255;27;20102;-75
2021/08/17 13:29:39;;;;;;;6.53;3.80;;;33.60;26.40;;;;;;6347585;27;20027;-74
2021/08/17 13:32:40;;;;;;;9.32;3.67;;;34.70;25.40;;;;;;6348077;27;20035;-74
2021/08/17 13:35:41;;;;;;;6.03;3.30;;;35.50;24.50;;;;;;6352037;27;20036;-74
2021/08/17 13:38:42;;;;;;;6.28;3.40;;;35.50;24.40;;;;;;6348870;27;20027;-74
2021/08/17 13:41:44;;;;;;;5.15;2.70;;;35.90;23.90;;;;;;6348701;28;20367;-75
2021/08/17 13:44:46;;;;;;;9.57;3.80;;;36.00;24.10;;;;;;6331637;28;20080;-74
2021/08/17 13:47:47;;;;;;;7.35;3.63;;;36.50;23.40;;;;;;6335950;28;20044;-74
2021/08/17 13:50:49;;;;;;;7.93;3.65;;;37.20;22.70;;;;;;6357724;28;20039;-74
2021/08/17 13:53:50;;;;;;;16.55;3.95;;;37.20;22.60;;;;;;6349521;27;20043;-75
2021/08/17 13:56:51;;;;;;;10.43;4.50;;;36.50;23.00;;;;;;6331347;28;20032;-75
2021/08/17 13:59:52;;;;;;;14.90;3.67;;;36.30;22.70;;;;;;6350289;28;20039;-74
2021/08/17 14:02:54;;;;;;;12.68;4.57;;;36.90;22.40;;;;;;6346853;27;20036;-74
2021/08/17 14:05:55;;;;;;;8.35;3.38;;;37.20;22.10;;;;;;6348353;27;20467;-74
2021/08/17 14:08:56;;;;;;;11.35;4.07;;;37.50;21.90;;;;;;6347957;27;20143;-73
2021/08/17 14:11:58;;;;;;;9.52;3.78;;;37.80;21.50;;;;;;6347780;27;20034;-74
2021/08/17 14:14:59;;;;;;;7.57;3.72;;;38.20;21.30;;;;;;6331168;27;20028;-74
2021/08/17 14:18:00;;;;;;;8.80;3.50;;;38.60;20.90;;;;;;6348202;27;20048;-74
2021/08/17 14:21:17;;;;;;;6.25;3.90;;;39.10;20.90;;;;;;6347960;27;20076;-75
2021/08/17 14:24:19;;;;;;;8.23;4.07;;;39.30;20.40;;;;;;6328208;27;20069;-75
2021/08/17 14:27:20;;;;;;;8.07;4.13;;;39.40;20.40;;;;;;6347866;27;20440;-74
2021/08/17 14:30:21;;;;;;;8.05;4.10;;;39.30;20.00;;;;;;6329416;27;20035;-73
2021/08/17 14:33:23;;;;;;;9.18;4.30;;;38.00;20.80;;;;;;6342313;27;20047;-74
2021/08/17 14:36:24;;;;;;;7.30;4.07;;;36.30;22.10;;;;;;6346395;27;20111;-75
2021/08/17 14:39:25;;;;;;;7.10;3.75;;;34.80;23.60;;;;;;6347909;27;20031;-75
2021/08/17 14:42:26;;;;;;;10.13;4.32;;;33.60;24.80;;;;;;6347567;27;20456;-74
2021/08/17 14:45:28;;;;;;;9.55;4.35;;;32.80;25.80;;;;;;6345450;27;20042;-75
2021/08/17 14:48:29;;;;;;;10.20;4.38;;;32.10;27.00;;;;;;6329018;27;20040;-73
2021/08/17 14:51:30;;;;;;;9.00;4.47;;;31.60;27.00;;;;;;6345026;27;20035;-74
2021/08/17 14:54:31;;;;;;;8.10;4.43;;;31.20;27.60;;;;;;6346111;27;20032;-74
2021/08/17 14:57:34;;;;;;;7.75;4.00;;;30.80;28.20;;;;;;6346089;27;20036;-74
2021/08/17 15:00:35;;;;;;;10.32;4.22;;;30.40;29.00;;;;;;6329044;27;20032;-73
2021/08/17 15:03:36;;;;;;;10.35;4.80;;;30.10;28.90;;;;;;6344667;27;20073;-75
2021/08/17 15:06:37;;;;;;;11.27;4.85;;;29.80;29.40;;;;;;6345604;27;20035;-74
2021/08/17 15:09:40;;;;;;;13.00;4.60;;;29.40;29.90;;;;;;6328218;27;20058;-74
2021/08/17 15:12:41;;;;;;;8.20;4.47;;;29.00;30.10;;;;;;6344561;27;20053;-75
2021/08/17 15:15:44;;;;;;;10.02;4.22;;;28.80;30.60;;;;;;6346348;27;20322;-74
2021/08/17 15:18:47;;;;;;;9.40;4.45;;;28.60;31.10;;;;;;6347088;27;20457;-74
2021/08/17 15:21:48;;;;;;;13.85;5.43;;;28.50;31.30;;;;;;6328328;27;20070;-73
2021/08/17 15:24:49;;;;;;;15.05;4.80;;;28.40;31.50;;;;;;6343323;27;20023;-74
2021/08/17 15:27:51;;;;;;;13.63;4.63;;;28.30;31.80;;;;;;6345373;27;20139;-74
2021/08/17 15:30:53;;;;;;;15.27;5.28;;;28.20;31.80;;;;;;6346455;27;20028;-74
2021/08/17 15:33:54;;;;;;;10.32;4.70;;;28.20;32.00;;;;;;6344886;27;20031;-73
2021/08/17 15:36:55;;;;;;;8.85;5.03;;;28.30;31.90;;;;;;6344761;27;20065;-73
2021/08/17 15:39:56;;;;;;;8.38;4.47;;;28.30;32.00;;;;;;6347112;27;20039;-74
2021/08/17 15:42:58;;;;;;;8.35;4.57;;;28.40;32.00;;;;;;6329602;28;20035;-73
2021/08/17 15:46:00;;;;;;;13.27;4.63;;;28.60;31.70;;;;;;6352020;27;20027;-73
2021/08/17 15:49:01;;;;;;;11.10;4.63;;;29.60;30.60;;;;;;6344498;28;20039;-74